Los Angeles, CA (90077)

6:57 PM PDT on July 30, 2015 (GMT -0700)
Upper Bel Air | | Change Station
CLOSE
Current Station
Personal Weather Station
Location: Bel Air, CA
Elevation: 1285 ft
Nearby Weather Stations
Active Advisory: Flash Flood Warning Active Notice: Record Report

Elev 1285 ft 34.12 °N, 118.47 °W | Updated 2 seconds ago

Partly Cloudy
Partly Cloudy
74.7 °F
Feels Like 77 °F
N
0.0
Wind Variable Wind from SW
Gusts 4.0 mph

Today
High -- | Low -- °F
--% Chance of Precip.
Yesterday
High -- | Low -- °F
Precip. -- in
6:03 AM 7:56 PM
Full, 100% visible
Pressure 29.96 in
Visibility 10.0 miles
Clouds Clear
Heat Index 77 °F
Dew Point 62 °F
Humidity 65%
Rainfall 0.00 in
Snow Depth Not available.
UV 1 out of 12
Pollen 2.60 out of 12
Air Quality Not available.
Flu Activity Not available.
METAR KSMO 310151Z 23007KT 10SM CLR 22/18 A2997 RMK AO2 SLP146 T02170178 $

More Conditions Fewer Conditions

Pressure 29.96 in
Visibility 10.0 miles
Clouds Clear
Heat Index 77 °F
Dew Point 62 °F
Humidity 65%
Rainfall 0.00 in
Snow Depth Not available.
UV 1 out of 12
Pollen 2.60 out of 12
Air Quality Not available.
Flu Activity Not available.
METAR KSMO 310151Z 23007KT 10SM CLR 22/18 A2997 RMK AO2 SLP146 T02170178 $

More Conditions Fewer Conditions

10-Day Weather Forecast

×

Almanac

Astronomy

Jul. 30, 2015 Rise Set
Actual Time
Civil Twilight
Nautical Twilight
Astronomical Twilight
Moon
Length of Visible Light
Length of Day
Tomorrow will be .
, % of the Moon is Illuminated

Today's Extremes

State Highs State Lows

Community

WunderPhotos

Upload Photos

1,842,568 photos uploaded!

WunderBlogs® & News

Nearby

Air Quality

  Air Quality AQ Index Pollutant
Not available.

Snow Depth

Station Depth Elevation

Earthquake Activity

City Distance Mag. Time & Date
Minimum magnitude displayed is 2.5.

Coastal Water Temperatures

Place Temperature

Stations

Nearby Weather Stations

Station Location Temp. Windchill Dew Point Humidity Wind Precip. Elev Updated Type
                   
Flash Flood Warning
Statement as of 5:01 PM PDT on July 30, 2015

The National Weather Service in Oxnard has issued a

* Flash Flood Warning for...
north central Los Angeles County in southwestern California...

* until 800 PM PDT

* at 455 PM PDT... Doppler radar indicated a strong thunderstorm near
Acton and Agua Dulce producing heavy rain. Rainfall rates of one
to two inches per hour are expected. Flash flooding is expected to
begin shortly for the warned area.

* Some locations that will experience flooding include...
Lancaster... Palmdale... Acton... Quartz Hill... Littlerock... Lake
Palmdale... and Highway 14 between Santa Clarita and Palmdale.

Precautionary/preparedness actions...

Move to higher ground now. Act quickly to protect your life.

Turn around... dont drown when encountering flooded roads. Most flood
deaths occur in vehicles.


Lat... Lon 3460 11792 3427 11818 3443 11848 3475 11821


Sukup/Smith